Ansley, Nebraska
Current Conditions -  °F | °C
As of 9:53 AM on Wednesday 22 Oct 2014 (Local Time) from KBBW Reporting Station
Clear Clear  
Wind Chill: 59°   Ceiling: Unl
Heat Index: 59°   Visibility: 10mi
Dew Point: 52°   Wind: 10mph
Humidity: 78%   Direction: 200°SSW
Pressure: 29.98"   Gusts: NA
Location:  41.29°N, 99.38°W
Report Text: KBBW 221453Z AUTO 20009KT 10SM CLR 15/11 A2998 RMK AO2 SLP141 T01500111 53013
Loading
Personal Weather Stations






























Interactive Weather Map New forecast layout! Learn more

10-Day Weather Forecast

Advertisements
Track Severe Weather on mobile